Terminal Aerodrome Forecast
Issued by NWS

Home | Current Version | Previous Version | Text Only | Print | Product List | Glossary On
Versions: 1 2 3 4 5 6 7 8 9 10 11 12 13 14 15 16
071
FTUS44 KLZK 231725
TAFPBF
TAF
KPBF 231725Z 2318/2418 15008G15KT P6SM SCT050 BKN250
     FM240400 17008KT P6SM SCT050 BKN250 WS020/19040KT
     FM241400 17012G20KT P6SM VCSH BKN050 OVC150=

USA.gov is the U.S. government's official web portal to all federal, state and local government web resources and services.